Time;durP1;ratioP1;P1;durP2;ratioP2;P2;SDS_P1;SDS_P2;PMS_P1;PMS_P2;Temp;Humidity;BMP_temperature;BMP_pressure;BME280_temperature;BME280_humidity;BME280_pressure;Samples;Min_cycle;Max_cycle;Signal;HPM_P1;HPM_P2
2022/05/28 04:30:13;;;;;;;8.80;4.10;;;13.20;99.90;;;;;;6023303;23;20413;-76
2022/05/28 04:32:39;;;;;;;12.23;3.30;;;13.20;99.90;;;;;;4936903;29;20898;-76
2022/05/28 04:35:05;;;;;;;8.17;4.23;;;13.20;99.90;;;;;;4938295;29;20481;-77
2022/05/28 04:37:30;;;;;;;6.23;3.13;;;13.30;99.90;;;;;;4938435;29;20230;-77
2022/05/28 04:39:56;;;;;;;8.77;4.93;;;13.20;99.90;;;;;;4953037;29;20215;-78
2022/05/28 04:42:22;;;;;;;18.33;4.50;;;13.20;99.90;;;;;;4938303;29;20187;-78
2022/05/28 04:44:47;;;;;;;7.33;3.60;;;13.20;99.90;;;;;;4938116;29;20222;-78
2022/05/28 04:47:13;;;;;;;15.03;3.20;;;13.20;99.90;;;;;;4938351;29;20225;-78
2022/05/28 04:49:38;;;;;;;12.73;3.73;;;13.20;99.90;;;;;;4938283;29;20258;-78
2022/05/28 04:52:04;;;;;;;6.27;3.27;;;13.20;99.90;;;;;;4938120;29;20191;-78
2022/05/28 04:54:30;;;;;;;8.63;3.37;;;13.30;99.90;;;;;;4938125;29;20262;-78
2022/05/28 04:56:55;;;;;;;18.60;3.93;;;13.30;99.90;;;;;;4937974;29;20521;-78
2022/05/28 04:59:21;;;;;;;8.40;3.03;;;13.30;99.90;;;;;;4938067;29;20191;-77
2022/05/28 05:01:46;;;;;;;7.70;3.00;;;13.30;99.90;;;;;;4937925;29;20175;-77
2022/05/28 05:04:12;;;;;;;8.33;2.80;;;13.40;99.90;;;;;;4937771;29;20238;-78
2022/05/28 05:06:37;;;;;;;12.57;2.80;;;13.40;99.90;;;;;;4937238;29;20270;-78
2022/05/28 05:09:03;;;;;;;7.90;2.87;;;13.40;99.90;;;;;;4937695;29;20179;-78
2022/05/28 05:11:28;;;;;;;9.20;3.30;;;13.50;99.90;;;;;;4937859;29;20238;-78
2022/05/28 05:13:54;;;;;;;9.20;2.53;;;13.50;99.90;;;;;;4937743;29;20623;-78
2022/05/28 05:16:20;;;;;;;6.63;3.80;;;13.60;99.90;;;;;;4937896;29;20176;-77
2022/05/28 05:18:46;;;;;;;11.57;3.40;;;13.70;99.90;;;;;;4937688;29;20591;-77
2022/05/28 05:21:12;;;;;;;9.70;2.90;;;13.70;99.90;;;;;;4937675;29;20183;-78
2022/05/28 05:23:41;;;;;;;9.03;2.70;;;13.80;99.90;;;;;;4937619;29;20441;-78
2022/05/28 05:26:15;;;;;;;9.63;3.50;;;13.80;99.90;;;;;;4937419;29;20470;-78
2022/05/28 05:28:41;;;;;;;27.83;6.27;;;13.80;99.90;;;;;;4937546;29;20473;-78
2022/05/28 05:31:06;;;;;;;7.47;1.90;;;13.80;99.90;;;;;;4936698;29;20498;-78
2022/05/28 05:33:32;;;;;;;6.23;2.40;;;13.70;99.90;;;;;;4937348;29;20187;-78
2022/05/28 05:35:57;;;;;;;10.33;2.87;;;13.70;99.90;;;;;;4937324;29;20261;-78
2022/05/28 05:38:23;;;;;;;6.13;2.70;;;13.70;99.90;;;;;;4937414;29;20521;-79
2022/05/28 05:40:51;;;;;;;6.47;2.37;;;13.80;99.90;;;;;;4937170;29;20179;-78
2022/05/28 05:43:18;;;;;;;10.27;3.67;;;13.70;99.90;;;;;;4937260;29;20211;-77
2022/05/28 05:45:51;;;;;;;8.03;2.37;;;13.70;99.90;;;;;;4937102;29;20889;-77
2022/05/28 05:48:16;;;;;;;9.10;3.07;;;13.70;99.90;;;;;;4937242;29;20794;-76
2022/05/28 05:50:42;;;;;;;9.00;2.10;;;13.70;99.90;;;;;;4937015;29;20431;-75
2022/05/28 05:53:08;;;;;;;5.10;2.20;;;13.80;99.90;;;;;;4936952;29;20175;-75
2022/05/28 05:55:34;;;;;;;5.50;1.80;;;13.80;99.90;;;;;;4937099;29;20582;-76
2022/05/28 05:57:59;;;;;;;6.00;2.00;;;13.80;99.90;;;;;;4936866;29;20446;-76
2022/05/28 06:00:25;;;;;;;9.17;2.70;;;13.90;99.90;;;;;;4936515;29;20436;-76
2022/05/28 06:02:50;;;;;;;9.60;2.37;;;13.90;99.90;;;;;;4936778;29;20179;-74
2022/05/28 06:05:16;;;;;;;5.30;2.30;;;14.10;99.90;;;;;;4936591;29;20246;-81
2022/05/28 06:07:42;;;;;;;9.33;2.63;;;14.00;99.90;;;;;;4936693;29;20183;-77
2022/05/28 06:10:10;;;;;;;7.50;2.20;;;14.10;99.90;;;;;;4936581;29;20175;-76
2022/05/28 06:12:35;;;;;;;7.47;2.40;;;14.30;99.90;;;;;;4933447;29;20550;-76
2022/05/28 06:15:01;;;;;;;5.50;2.17;;;14.40;99.90;;;;;;4923761;29;20447;-76
2022/05/28 06:17:27;;;;;;;10.10;2.30;;;14.50;99.90;;;;;;4917515;29;20168;-77
2022/05/28 06:19:52;;;;;;;3.03;1.67;;;14.60;99.90;;;;;;4916374;29;20184;-77
2022/05/28 06:22:18;;;;;;;9.30;2.37;;;14.70;99.90;;;;;;4916585;29;20533;-73
2022/05/28 06:24:43;;;;;;;13.17;2.50;;;14.80;99.90;;;;;;4916535;29;20693;-72
2022/05/28 06:27:09;;;;;;;5.50;1.63;;;14.90;99.90;;;;;;4916410;29;20175;-73
2022/05/28 06:29:35;;;;;;;7.10;2.70;;;14.90;99.90;;;;;;4916509;29;20183;-73
2022/05/28 06:32:00;;;;;;;7.67;2.20;;;14.80;99.90;;;;;;4916202;29;20620;-72
2022/05/28 06:34:26;;;;;;;5.17;2.23;;;14.90;99.90;;;;;;4916475;29;20227;-73
2022/05/28 06:36:53;;;;;;;9.67;2.33;;;15.10;99.90;;;;;;4916404;29;20613;-74
2022/05/28 06:39:18;;;;;;;7.77;2.50;;;15.10;99.90;;;;;;4916090;29;20266;-73
2022/05/28 06:41:44;;;;;;;4.40;1.70;;;15.20;99.90;;;;;;4916311;29;20519;-76
2022/05/28 06:44:10;;;;;;;3.43;1.60;;;15.30;99.90;;;;;;4916171;29;20314;-79
2022/05/28 06:46:36;;;;;;;3.63;1.50;;;15.40;99.90;;;;;;4916289;29;20314;-77
2022/05/28 06:49:02;;;;;;;6.80;2.67;;;15.40;99.90;;;;;;4916045;29;20518;-77
2022/05/28 06:51:28;;;;;;;3.93;1.57;;;15.50;99.90;;;;;;4916275;29;20699;-76
2022/05/28 06:53:53;;;;;;;6.33;1.80;;;15.20;99.90;;;;;;4916479;29;20270;-83
2022/05/28 06:56:19;;;;;;;3.87;1.17;;;15.20;99.90;;;;;;4916329;29;20224;-79
2022/05/28 06:58:45;;;;;;;6.80;1.53;;;15.10;99.90;;;;;;4915716;29;20176;-78
2022/05/28 07:01:12;;;;;;;3.93;1.20;;;15.20;99.90;;;;;;4915991;29;20647;-75
2022/05/28 07:03:40;;;;;;;5.27;1.60;;;15.20;99.90;;;;;;4916374;29;20483;-82
2022/05/28 07:06:05;;;;;;;3.17;1.87;;;15.10;99.90;;;;;;4916084;29;20510;-80
2022/05/28 07:08:32;;;;;;;3.13;1.20;;;15.20;99.90;;;;;;4916172;29;20464;-80
2022/05/28 07:10:59;;;;;;;5.70;1.83;;;15.30;99.90;;;;;;4915906;29;20548;-79
2022/05/28 07:13:26;;;;;;;5.87;1.80;;;15.40;99.90;;;;;;4916106;29;20431;-79
2022/05/28 07:15:52;;;;;;;3.67;1.87;;;15.50;99.90;;;;;;4916053;29;20515;-76
2022/05/28 07:18:19;;;;;;;1.80;1.27;;;15.50;99.90;;;;;;4915841;29;20459;-77
2022/05/28 07:20:44;;;;;;;2.90;1.97;;;15.50;99.90;;;;;;4915906;29;20282;-83
2022/05/28 07:23:13;;;;;;;11.67;2.00;;;15.60;99.90;;;;;;4916153;29;20518;-78
2022/05/28 07:25:40;;;;;;;7.90;2.07;;;15.60;99.90;;;;;;4916140;29;20246;-82
2022/05/28 07:28:24;;;;;;;3.43;1.57;;;15.50;99.90;;;;;;4916432;29;20430;-80
2022/05/28 07:31:09;;;;;;;7.33;1.70;;;15.50;99.90;;;;;;4919832;29;20502;-80
2022/05/28 07:33:39;;;;;;;4.90;1.40;;;15.40;99.90;;;;;;4920304;29;20436;-80
2022/05/28 07:36:06;;;;;;;10.60;1.37;;;15.20;99.90;;;;;;4921063;29;20548;-79
2022/05/28 07:38:32;;;;;;;9.03;2.67;;;15.00;99.90;;;;;;4919959;29;20977;-80
2022/05/28 07:41:04;;;;;;;8.00;1.60;;;15.10;99.90;;;;;;4934773;29;20931;-82
2022/05/28 07:43:30;;;;;;;5.90;1.87;;;15.20;99.90;;;;;;4919658;29;20439;-74
2022/05/28 07:45:56;;;;;;;9.60;1.60;;;15.30;99.90;;;;;;4919726;29;21017;-79
2022/05/28 07:48:21;;;;;;;8.93;1.67;;;15.40;99.90;;;;;;4919770;29;20426;-77
2022/05/28 07:50:47;;;;;;;4.87;1.67;;;15.50;99.90;;;;;;4934047;29;20616;-77
2022/05/28 07:53:13;;;;;;;7.37;1.77;;;15.50;99.90;;;;;;4919551;29;20328;-77
2022/05/28 07:55:39;;;;;;;17.03;2.63;;;15.50;99.90;;;;;;4919827;29;20674;-79
2022/05/28 07:58:10;;;;;;;5.60;1.40;;;15.70;99.90;;;;;;4919732;29;20664;-79
2022/05/28 08:00:41;;;;;;;5.43;1.53;;;15.80;99.90;;;;;;4919224;29;20439;-76
2022/05/28 08:03:08;;;;;;;4.10;1.40;;;15.80;99.90;;;;;;4919111;29;20435;-75
2022/05/28 08:05:35;;;;;;;5.27;1.70;;;15.90;99.90;;;;;;4919222;29;20538;-80
2022/05/28 08:08:01;;;;;;;14.30;2.33;;;15.80;99.10;;;;;;4920228;29;20566;-80
2022/05/28 08:10:26;;;;;;;5.17;1.60;;;16.00;98.60;;;;;;4919208;29;20956;-76
2022/05/28 08:12:52;;;;;;;5.97;1.70;;;16.10;98.10;;;;;;4919525;29;20188;-75
2022/05/28 08:15:18;;;;;;;4.77;1.70;;;16.20;98.00;;;;;;4919011;29;20192;-77
2022/05/28 08:17:43;;;;;;;8.37;1.90;;;16.20;96.60;;;;;;4924154;29;20190;-74
2022/05/28 08:20:10;;;;;;;5.03;1.50;;;16.20;96.80;;;;;;4925129;29;20180;-75
2022/05/28 08:25:20;;;;;;;3.30;1.27;;;16.20;96.90;;;;;;4932673;29;20494;-76
2022/05/28 08:27:46;;;;;;;5.30;1.57;;;16.30;96.80;;;;;;4926329;29;20792;-79
2022/05/28 08:30:12;;;;;;;9.53;2.13;;;16.30;96.00;;;;;;4927578;29;20267;-79
2022/05/28 08:32:37;;;;;;;4.20;1.40;;;16.30;95.90;;;;;;4918509;29;20232;-79
2022/05/28 08:35:04;;;;;;;3.03;1.30;;;16.40;96.80;;;;;;4918547;29;20542;-79
2022/05/28 08:37:29;;;;;;;2.00;1.30;;;16.50;92.30;;;;;;4919094;29;20190;-81
2022/05/28 08:39:55;;;;;;;4.33;1.73;;;16.60;91.60;;;;;;4919885;29;20439;-82
2022/05/28 08:42:25;;;;;;;4.77;1.20;;;16.60;91.30;;;;;;4937016;29;20191;-81
2022/05/28 08:44:52;;;;;;;3.17;1.37;;;16.60;93.40;;;;;;4935403;29;20637;-81
2022/05/28 08:47:33;;;;;;;3.30;1.77;;;16.50;91.80;;;;;;4939359;29;20427;-90
2022/05/28 08:49:59;;;;;;;3.50;1.20;;;16.60;93.10;;;;;;4939708;29;20965;-87
2022/05/28 08:53:03;;;;;;;2.47;1.73;;;16.50;90.20;;;;;;4937372;29;20522;-71
2022/05/28 08:55:36;;;;;;;5.30;1.73;;;16.30;90.30;;;;;;4889160;29;20194;-74
2022/05/28 08:58:07;;;;;;;5.43;2.00;;;16.50;92.90;;;;;;4937325;29;20427;-73
2022/05/28 09:00:43;;;;;;;6.83;1.60;;;16.40;91.20;;;;;;4936855;29;20486;-73
2022/05/28 09:03:17;;;;;;;1.63;1.53;;;16.60;92.30;;;;;;4937085;29;20505;-71
2022/05/28 09:06:10;;;;;;;6.10;2.07;;;16.60;91.90;;;;;;4937047;29;21087;-72
2022/05/28 09:08:45;;;;;;;5.83;2.10;;;16.60;92.10;;;;;;4936859;29;20981;-72
2022/05/28 09:11:32;;;;;;;5.53;1.60;;;16.70;91.00;;;;;;4937156;29;20910;-73
2022/05/28 09:14:08;;;;;;;3.03;1.30;;;16.80;91.00;;;;;;4933163;29;20661;-72
2022/05/28 09:16:37;;;;;;;6.40;1.90;;;16.70;90.60;;;;;;4936709;29;20422;-71
2022/05/28 09:19:17;;;;;;;8.17;2.40;;;16.60;91.20;;;;;;4936501;29;20431;-72
2022/05/28 09:21:44;;;;;;;4.10;1.57;;;16.50;92.70;;;;;;4936638;29;20423;-72
2022/05/28 09:24:18;;;;;;;8.67;1.83;;;16.50;92.30;;;;;;4951152;28;20426;-71
2022/05/28 09:26:49;;;;;;;7.20;1.23;;;16.50;91.20;;;;;;4922773;28;20436;-71
2022/05/28 09:29:41;;;;;;;4.20;1.20;;;16.60;89.80;;;;;;4917416;29;20457;-72
2022/05/28 09:32:17;;;;;;;7.13;1.93;;;16.70;89.70;;;;;;4894721;29;21059;-73
2022/05/28 09:35:20;;;;;;;11.87;2.43;;;16.80;89.30;;;;;;4931981;29;20439;-74
2022/05/28 09:38:14;;;;;;;2.40;1.20;;;16.90;91.20;;;;;;4917201;29;20435;-73
2022/05/28 09:40:55;;;;;;;4.33;1.47;;;16.90;87.60;;;;;;4917327;29;20428;-72
2022/05/28 09:43:33;;;;;;;3.60;1.23;;;17.00;88.20;;;;;;4917384;29;20466;-71
2022/05/28 09:46:07;;;;;;;2.53;1.10;;;17.10;89.40;;;;;;4916963;29;20490;-71
2022/05/28 09:48:33;;;;;;;4.17;1.20;;;17.10;81.40;;;;;;4923690;29;20974;-73
2022/05/28 09:50:58;;;;;;;5.93;1.40;;;17.20;84.90;;;;;;4935879;29;20471;-73
2022/05/28 09:56:36;;;;;;;5.77;2.23;;;17.30;86.00;;;;;;4931475;29;20269;-72
2022/05/28 09:59:25;;;;;;;4.47;1.57;;;17.30;87.70;;;;;;4931011;29;20446;-73
2022/05/28 10:01:59;;;;;;;7.30;1.37;;;17.20;87.30;;;;;;4930999;29;20435;-73
2022/05/28 10:04:28;;;;;;;11.63;1.20;;;17.10;86.50;;;;;;4933548;29;20485;-75
2022/05/28 10:06:57;;;;;;;4.07;1.70;;;17.00;88.70;;;;;;4935826;29;20450;-75
2022/05/28 10:09:32;;;;;;;2.90;1.90;;;16.90;88.40;;;;;;4947376;28;20442;-75
2022/05/28 10:12:07;;;;;;;6.43;1.27;;;17.00;90.60;;;;;;4932683;29;20438;-73
2022/05/28 10:14:33;;;;;;;3.17;1.23;;;16.90;90.10;;;;;;4931677;29;20918;-72
2022/05/28 10:17:02;;;;;;;4.93;1.60;;;17.00;92.80;;;;;;4932551;29;20498;-71
2022/05/28 10:19:30;;;;;;;5.40;1.53;;;17.00;91.30;;;;;;4932440;28;20187;-71
2022/05/28 10:22:00;;;;;;;5.90;2.27;;;16.90;88.60;;;;;;4932590;29;20441;-73
2022/05/28 10:24:33;;;;;;;5.77;1.70;;;17.10;88.50;;;;;;4932495;29;20484;-70
2022/05/28 10:27:01;;;;;;;4.90;1.67;;;17.20;85.20;;;;;;4933495;29;20446;-69
2022/05/28 10:29:38;;;;;;;4.23;1.60;;;17.00;82.90;;;;;;4932349;29;20451;-69
2022/05/28 10:32:26;;;;;;;8.50;2.40;;;17.00;86.70;;;;;;4933738;29;20590;-69
2022/05/28 10:35:19;;;;;;;8.80;1.83;;;17.10;85.50;;;;;;4933438;29;20603;-70
2022/05/28 10:37:44;;;;;;;9.33;1.93;;;16.90;87.20;;;;;;4930079;29;20891;-70
2022/05/28 10:40:23;;;;;;;4.60;1.90;;;16.90;86.20;;;;;;4933256;29;20525;-69
2022/05/28 10:42:53;;;;;;;5.43;2.07;;;16.90;87.60;;;;;;4935995;29;20541;-69
2022/05/28 10:45:20;;;;;;;5.30;1.83;;;16.80;90.10;;;;;;4932042;29;20490;-72
2022/05/28 10:47:54;;;;;;;4.60;1.77;;;16.90;92.60;;;;;;4934628;29;20935;-70
2022/05/28 10:50:31;;;;;;;5.40;1.30;;;17.10;90.80;;;;;;4932227;29;20800;-69
2022/05/28 10:53:18;;;;;;;8.10;1.63;;;17.20;88.80;;;;;;4931898;29;20962;-69
2022/05/28 10:55:55;;;;;;;4.80;1.70;;;17.30;90.90;;;;;;4932121;29;20446;-70
2022/05/28 10:58:28;;;;;;;5.47;1.73;;;17.30;86.90;;;;;;4932172;29;20423;-70
2022/05/28 11:01:23;;;;;;;4.33;1.50;;;17.30;85.80;;;;;;4932048;29;20937;-69
2022/05/28 11:04:32;;;;;;;3.97;1.50;;;17.60;88.70;;;;;;4931171;29;20451;-71
2022/05/28 11:07:12;;;;;;;3.17;1.57;;;17.70;85.40;;;;;;4893527;29;20617;-70
2022/05/28 11:09:43;;;;;;;3.60;1.40;;;17.60;79.80;;;;;;4929746;29;20458;-70
2022/05/28 11:12:25;;;;;;;3.83;1.30;;;17.60;77.30;;;;;;4932966;29;20471;-71
2022/05/28 11:15:17;;;;;;;5.20;2.00;;;17.70;77.70;;;;;;4932589;29;20942;-71
2022/05/28 11:18:11;;;;;;;2.17;1.20;;;17.70;77.50;;;;;;4931632;29;20518;-71
2022/05/28 11:21:09;;;;;;;4.90;1.60;;;17.90;79.50;;;;;;4931709;29;20567;-70
2022/05/28 11:24:13;;;;;;;4.67;1.60;;;17.80;76.70;;;;;;4934088;29;20435;-69
2022/05/28 11:26:47;;;;;;;4.80;2.00;;;17.70;82.10;;;;;;4931184;29;20443;-69
2022/05/28 11:29:40;;;;;;;9.23;2.90;;;17.80;82.20;;;;;;4934093;29;20434;-69
2022/05/28 11:32:16;;;;;;;5.33;1.30;;;17.80;82.50;;;;;;4930767;29;20474;-70
2022/05/28 11:35:27;;;;;;;6.90;1.63;;;17.90;86.60;;;;;;4933522;29;20430;-70
2022/05/28 11:38:20;;;;;;;8.10;1.70;;;18.20;86.00;;;;;;4924780;29;20438;-70
2022/05/28 11:41:20;;;;;;;5.07;1.70;;;18.30;73.50;;;;;;4931038;29;20991;-70
2022/05/28 11:44:08;;;;;;;1.90;1.47;;;18.20;77.00;;;;;;4932129;29;20942;-70
2022/05/28 11:46:41;;;;;;;4.77;1.60;;;18.00;81.90;;;;;;4931605;29;20443;-69
2022/05/28 11:52:36;;;;;;;3.60;1.37;;;18.00;82.40;;;;;;4931558;29;20552;-70
2022/05/28 11:55:11;;;;;;;6.50;1.80;;;17.70;85.80;;;;;;4932468;29;20515;-70
2022/05/28 11:57:49;;;;;;;5.03;2.13;;;17.60;86.30;;;;;;4931289;29;20997;-72
2022/05/28 12:00:16;;;;;;;5.60;1.60;;;17.80;86.30;;;;;;4930703;29;20657;-69
2022/05/28 12:02:47;;;;;;;6.40;1.83;;;17.80;82.80;;;;;;4934418;29;20431;-68
2022/05/28 12:05:25;;;;;;;3.33;1.37;;;17.60;80.20;;;;;;4934186;29;20483;-68
2022/05/28 12:07:59;;;;;;;4.57;2.07;;;17.80;80.60;;;;;;4934166;29;20849;-70
2022/05/28 12:10:37;;;;;;;3.00;1.47;;;18.00;79.30;;;;;;4933054;29;20457;-70
2022/05/28 12:13:04;;;;;;;3.00;1.40;;;18.30;77.00;;;;;;4930967;29;20427;-70
2022/05/28 12:15:34;;;;;;;8.83;2.70;;;18.60;79.50;;;;;;4935050;29;20848;-69
2022/05/28 12:18:20;;;;;;;3.00;1.73;;;18.70;80.00;;;;;;4934247;29;20446;-70
2022/05/28 12:21:00;;;;;;;10.93;1.93;;;18.80;78.80;;;;;;4933938;29;20437;-69
2022/05/28 12:23:38;;;;;;;5.83;2.10;;;18.90;77.00;;;;;;4934211;29;20775;-68
2022/05/28 12:26:39;;;;;;;9.00;2.20;;;18.80;77.10;;;;;;4936372;29;20474;-69
2022/05/28 12:29:05;;;;;;;3.30;1.93;;;18.60;76.00;;;;;;4936270;29;20517;-68
2022/05/28 12:31:30;;;;;;;6.90;2.10;;;18.70;78.70;;;;;;4936041;28;21016;-68
2022/05/28 12:33:59;;;;;;;3.63;1.33;;;19.00;71.60;;;;;;4936172;29;20435;-69
2022/05/28 12:36:48;;;;;;;3.47;1.70;;;19.10;73.70;;;;;;4933686;29;20187;-70
2022/05/28 12:39:14;;;;;;;5.43;1.80;;;19.20;72.00;;;;;;4935485;29;20449;-70
2022/05/28 12:41:41;;;;;;;3.37;1.27;;;19.10;71.70;;;;;;4935980;29;20800;-69
2022/05/28 12:44:17;;;;;;;4.27;2.33;;;19.30;73.40;;;;;;4933661;29;20755;-70
2022/05/28 12:46:50;;;;;;;2.40;1.60;;;19.20;70.10;;;;;;4935975;29;20574;-71
2022/05/28 12:49:33;;;;;;;5.47;1.63;;;19.10;72.10;;;;;;4935891;29;20434;-69
2022/05/28 12:52:19;;;;;;;7.93;2.13;;;19.30;73.50;;;;;;4935182;29;20439;-68
2022/05/28 12:54:45;;;;;;;7.50;1.97;;;19.40;73.10;;;;;;4935934;29;20465;-70
2022/05/28 12:57:14;;;;;;;9.63;1.87;;;19.50;68.60;;;;;;4936040;29;20905;-71
2022/05/28 12:59:47;;;;;;;7.13;2.03;;;19.20;71.10;;;;;;4935807;29;20446;-71
2022/05/28 13:02:16;;;;;;;3.83;1.70;;;19.10;65.50;;;;;;4935811;29;20443;-70
2022/05/28 13:04:48;;;;;;;4.40;1.70;;;19.00;66.40;;;;;;4935368;29;20458;-71
2022/05/28 13:07:34;;;;;;;4.30;1.77;;;18.90;68.00;;;;;;4935377;29;20466;-70
2022/05/28 13:10:06;;;;;;;4.60;2.37;;;18.80;64.50;;;;;;4934818;29;20964;-70
2022/05/28 13:13:07;;;;;;;6.50;2.07;;;19.00;60.90;;;;;;4936430;29;20578;-71
2022/05/28 13:15:57;;;;;;;6.33;2.40;;;19.00;62.00;;;;;;4918028;29;20442;-71
2022/05/28 13:18:45;;;;;;;4.60;2.10;;;19.00;60.40;;;;;;4936719;29;20792;-70
2022/05/28 13:21:35;;;;;;;4.93;1.60;;;19.10;58.90;;;;;;4936675;29;20447;-69
2022/05/28 13:24:09;;;;;;;6.20;1.90;;;19.00;65.40;;;;;;4936494;29;20796;-70
2022/05/28 13:26:42;;;;;;;2.00;1.43;;;18.90;69.40;;;;;;4935880;29;20455;-71
2022/05/28 13:29:49;;;;;;;4.47;2.40;;;19.30;63.60;;;;;;4936551;29;20458;-70
2022/05/28 13:32:22;;;;;;;9.00;2.07;;;19.70;67.60;;;;;;4904067;29;20482;-70
2022/05/28 13:35:01;;;;;;;4.17;1.40;;;19.70;60.30;;;;;;4936380;29;20438;-70
2022/05/28 13:37:28;;;;;;;5.80;1.87;;;19.50;59.40;;;;;;4936209;29;20454;-71
2022/05/28 13:39:55;;;;;;;5.00;1.90;;;19.70;59.90;;;;;;4936353;29;20427;-68
2022/05/28 13:42:21;;;;;;;2.43;1.60;;;19.70;60.80;;;;;;4936329;29;20441;-68
2022/05/28 13:44:47;;;;;;;2.23;1.07;;;19.70;62.10;;;;;;4936132;29;20463;-68
2022/05/28 13:47:17;;;;;;;5.50;1.60;;;20.00;64.20;;;;;;4936228;29;20419;-69
2022/05/28 13:49:48;;;;;;;3.63;2.07;;;20.30;57.40;;;;;;4936062;29;20201;-69
2022/05/28 13:52:17;;;;;;;7.03;2.40;;;20.50;59.40;;;;;;4936256;29;20517;-69
2022/05/28 13:55:00;;;;;;;5.70;1.53;;;20.40;58.80;;;;;;4936077;29;20467;-68
2022/05/28 13:57:44;;;;;;;5.13;2.10;;;20.60;56.20;;;;;;4935984;29;20431;-70
2022/05/28 14:00:15;;;;;;;2.70;1.60;;;20.50;54.70;;;;;;4936140;29;20434;-70
2022/05/28 14:02:55;;;;;;;6.20;1.67;;;20.50;53.30;;;;;;4935816;29;20494;-70
2022/05/28 14:05:44;;;;;;;3.17;1.90;;;20.20;52.60;;;;;;4935801;29;20474;-72
2022/05/28 14:08:20;;;;;;;4.83;1.70;;;20.10;56.90;;;;;;4935519;29;20419;-71
2022/05/28 14:10:45;;;;;;;5.83;1.50;;;20.20;55.50;;;;;;4935424;29;20493;-72
2022/05/28 14:13:26;;;;;;;2.90;1.57;;;20.00;53.20;;;;;;4935598;29;20927;-71
2022/05/28 14:15:54;;;;;;;6.77;1.40;;;19.90;53.90;;;;;;4935591;29;20254;-70
2022/05/28 14:18:26;;;;;;;3.53;1.73;;;19.70;53.40;;;;;;4935563;29;20434;-71
2022/05/28 14:21:02;;;;;;;3.63;1.50;;;19.50;54.40;;;;;;4935471;29;20514;-71
2022/05/28 14:23:27;;;;;;;1.43;1.27;;;19.30;55.80;;;;;;4935437;29;20422;-72
2022/05/28 14:25:54;;;;;;;3.43;1.40;;;19.60;55.80;;;;;;4935366;29;20521;-71
2022/05/28 14:28:21;;;;;;;2.07;1.37;;;19.60;55.10;;;;;;4935529;29;20296;-73
2022/05/28 14:30:47;;;;;;;8.90;1.97;;;19.40;54.00;;;;;;4935270;29;20770;-72
2022/05/28 14:35:35;;;;;;;5.13;1.70;;;19.40;54.70;;;;;;5069292;28;20575;-72
2022/05/28 14:38:06;;;;;;;6.40;2.40;;;19.30;55.80;;;;;;5069320;28;20428;-71
2022/05/28 14:40:34;;;;;;;3.33;1.80;;;19.20;55.40;;;;;;5068988;28;20421;-70
2022/05/28 14:43:03;;;;;;;3.37;1.70;;;19.20;56.90;;;;;;5069504;28;20425;-71
2022/05/28 14:45:33;;;;;;;5.20;2.33;;;19.10;58.00;;;;;;5069766;28;20452;-71
2022/05/28 14:48:01;;;;;;;3.30;1.73;;;19.10;58.30;;;;;;5069848;28;20417;-71
2022/05/28 14:50:31;;;;;;;5.93;1.97;;;19.20;59.10;;;;;;5070083;28;20507;-71
2022/05/28 14:52:58;;;;;;;5.50;1.63;;;19.30;56.50;;;;;;5069889;28;20433;-72
2022/05/28 14:55:33;;;;;;;4.67;1.40;;;19.50;57.10;;;;;;5070063;28;20800;-71
2022/05/28 14:58:04;;;;;;;1.77;1.63;;;19.80;56.30;;;;;;5069930;28;20825;-72
2022/05/28 15:00:33;;;;;;;3.60;2.10;;;20.00;52.60;;;;;;5069951;28;20428;-71
2022/05/28 15:03:15;;;;;;;5.60;1.40;;;20.10;53.40;;;;;;5069654;28;20465;-71
2022/05/28 15:05:43;;;;;;;2.77;1.40;;;20.20;52.60;;;;;;5069770;28;20425;-71
2022/05/28 15:08:26;;;;;;;4.60;1.73;;;20.00;51.60;;;;;;5069803;28;20435;-71
2022/05/28 15:10:53;;;;;;;1.80;1.40;;;20.00;52.30;;;;;;5069615;28;20527;-72
2022/05/28 15:13:30;;;;;;;2.47;1.53;;;19.80;52.90;;;;;;5069469;28;20566;-71
2022/05/28 15:15:58;;;;;;;2.60;1.50;;;19.80;53.90;;;;;;5069631;28;20436;-71
2022/05/28 15:18:27;;;;;;;5.50;2.07;;;19.60;53.60;;;;;;5069605;28;20510;-71
2022/05/28 15:20:55;;;;;;;5.00;2.20;;;19.30;54.10;;;;;;5069442;28;20433;-71
2022/05/28 15:23:21;;;;;;;5.10;1.63;;;19.40;54.40;;;;;;5069488;28;20425;-71
2022/05/28 15:25:47;;;;;;;6.73;1.97;;;19.30;53.90;;;;;;5069174;28;20560;-71
2022/05/28 15:28:13;;;;;;;5.07;1.70;;;19.40;56.30;;;;;;5069236;28;20178;-71
2022/05/28 15:30:39;;;;;;;8.70;2.70;;;19.50;55.40;;;;;;5068444;28;20927;-72
2022/05/28 15:33:08;;;;;;;8.07;2.57;;;19.50;56.00;;;;;;5067992;28;20469;-71
2022/05/28 15:38:18;;;;;;;8.17;2.33;;;19.40;57.10;;;;;;5068291;28;20420;-71
2022/05/28 15:40:45;;;;;;;3.33;1.60;;;19.60;57.00;;;;;;5068175;28;20420;-71
2022/05/28 15:43:11;;;;;;;5.60;1.80;;;19.70;58.20;;;;;;5068172;28;20169;-71
2022/05/28 15:45:41;;;;;;;5.23;2.00;;;19.50;56.90;;;;;;5059745;28;20787;-71
2022/05/28 15:48:07;;;;;;;5.93;2.10;;;19.10;56.60;;;;;;5055013;28;20568;-70
2022/05/28 15:50:33;;;;;;;6.13;1.80;;;19.00;54.80;;;;;;5054810;28;20504;-71
2022/05/28 15:52:59;;;;;;;7.67;2.10;;;18.80;56.60;;;;;;5054573;28;20177;-71
2022/05/28 15:55:26;;;;;;;4.30;2.00;;;18.90;57.90;;;;;;5054766;28;20504;-71
2022/05/28 15:58:01;;;;;;;8.27;2.37;;;18.80;57.50;;;;;;5054633;28;20174;-71
2022/05/28 16:00:31;;;;;;;9.57;2.60;;;18.80;58.90;;;;;;5054683;28;20828;-71
2022/05/28 16:03:01;;;;;;;4.30;1.63;;;19.10;59.10;;;;;;5054576;28;20448;-71
2022/05/28 16:05:37;;;;;;;4.73;2.10;;;19.20;57.30;;;;;;5054642;28;20410;-72
2022/05/28 16:08:11;;;;;;;5.77;2.00;;;19.00;56.80;;;;;;5054506;28;20425;-72
2022/05/28 16:10:37;;;;;;;4.80;2.10;;;19.00;56.20;;;;;;5054299;28;20418;-72
2022/05/28 16:13:03;;;;;;;3.10;1.53;;;18.70;55.60;;;;;;5054475;28;22384;-71
2022/05/28 16:15:28;;;;;;;2.90;1.77;;;18.80;55.30;;;;;;5054391;28;20537;-72
2022/05/28 16:17:54;;;;;;;4.53;1.93;;;18.90;55.90;;;;;;5054354;28;20179;-71
2022/05/28 16:20:21;;;;;;;2.67;1.70;;;18.90;54.20;;;;;;5054250;28;20200;-71
2022/05/28 16:22:46;;;;;;;4.10;1.70;;;18.90;54.90;;;;;;5054099;28;20421;-72
2022/05/28 16:25:12;;;;;;;6.40;2.40;;;19.00;53.40;;;;;;5054299;28;20433;-71
2022/05/28 16:27:39;;;;;;;7.80;2.90;;;19.10;52.30;;;;;;5053987;28;20649;-72
2022/05/28 16:30:05;;;;;;;3.20;1.70;;;19.20;52.30;;;;;;5053502;28;20190;-72
2022/05/28 16:32:31;;;;;;;5.30;2.40;;;19.10;51.70;;;;;;5054799;28;20417;-71
2022/05/28 16:34:57;;;;;;;4.90;2.63;;;19.10;51.90;;;;;;5054401;28;20492;-71
2022/05/28 16:37:23;;;;;;;3.67;1.93;;;19.10;51.70;;;;;;5054781;28;20244;-72
2022/05/28 16:39:49;;;;;;;5.20;2.27;;;19.20;51.80;;;;;;5054660;28;20194;-71
2022/05/28 16:42:18;;;;;;;1.90;1.70;;;19.20;49.60;;;;;;5054253;28;20792;-71
2022/05/28 16:44:46;;;;;;;4.93;1.50;;;19.10;50.20;;;;;;5053671;28;20205;-71
2022/05/28 16:47:12;;;;;;;3.33;1.73;;;19.20;49.80;;;;;;5053857;28;20422;-72
2022/05/28 16:49:37;;;;;;;4.77;1.87;;;19.20;48.40;;;;;;5053746;28;20927;-71
2022/05/28 16:52:03;;;;;;;3.27;1.80;;;19.30;48.70;;;;;;5053561;28;20269;-71
2022/05/28 16:54:29;;;;;;;3.50;2.30;;;19.10;49.60;;;;;;5053585;28;20217;-71
2022/05/28 16:56:54;;;;;;;3.10;1.90;;;19.10;49.60;;;;;;5051421;28;20171;-71
2022/05/28 16:59:20;;;;;;;7.00;2.33;;;19.00;50.50;;;;;;5053375;28;20201;-71
2022/05/28 17:01:46;;;;;;;2.63;1.57;;;18.80;50.10;;;;;;5053541;28;20224;-71
2022/05/28 17:04:12;;;;;;;8.17;1.83;;;18.80;50.20;;;;;;5053559;28;20650;-71
2022/05/28 17:06:37;;;;;;;4.50;1.67;;;18.50;49.40;;;;;;5053428;28;20183;-71
2022/05/28 17:09:03;;;;;;;2.50;1.57;;;18.50;49.30;;;;;;5053257;28;20547;-71
2022/05/28 17:11:29;;;;;;;4.23;1.80;;;18.40;49.80;;;;;;5053414;28;20526;-71
2022/05/28 17:13:57;;;;;;;6.00;1.80;;;18.30;50.40;;;;;;5053169;28;20648;-71
2022/05/28 17:16:23;;;;;;;2.87;1.90;;;18.00;50.60;;;;;;5053081;28;20430;-71
2022/05/28 17:18:49;;;;;;;4.63;2.00;;;17.80;51.40;;;;;;5053223;28;20428;-71
2022/05/28 17:21:29;;;;;;;7.97;2.20;;;17.80;51.30;;;;;;5053104;28;20824;-71
2022/05/28 17:23:56;;;;;;;3.77;2.13;;;17.70;52.30;;;;;;5053161;28;20512;-71
2022/05/28 17:26:22;;;;;;;4.73;2.40;;;17.70;52.90;;;;;;5052946;28;20437;-70
2022/05/28 17:28:48;;;;;;;4.23;2.00;;;17.80;52.10;;;;;;5052888;28;20433;-71
2022/05/28 17:31:16;;;;;;;6.67;1.83;;;17.70;53.00;;;;;;5052050;28;20928;-71
2022/05/28 17:33:43;;;;;;;3.73;1.20;;;17.80;52.70;;;;;;5051942;28;20480;-71
2022/05/28 17:36:12;;;;;;;4.47;2.50;;;17.90;50.70;;;;;;5052829;28;20469;-71
2022/05/28 17:38:40;;;;;;;2.50;1.50;;;17.80;48.40;;;;;;5051800;28;20409;-71
2022/05/28 17:41:09;;;;;;;3.10;1.83;;;17.80;47.90;;;;;;5053212;28;20943;-74
2022/05/28 17:43:35;;;;;;;7.53;1.77;;;18.00;48.20;;;;;;5052372;28;20479;-73
2022/05/28 17:46:01;;;;;;;8.50;2.53;;;18.00;49.00;;;;;;5056911;28;20916;-73
2022/05/28 17:48:27;;;;;;;2.17;1.33;;;17.70;46.50;;;;;;5055566;28;20490;-72
2022/05/28 17:50:54;;;;;;;3.30;2.00;;;17.70;47.00;;;;;;5056327;28;20429;-73